sensor_id;sensor_type;location;lat;lon;timestamp;P1;durP1;ratioP1;P2;durP2;ratioP2
64885;SDS011;51514;52.206;5.114;2023-08-24T00:01:02;1.75;;;0.93;;
64885;SDS011;51514;52.206;5.114;2023-08-24T00:03:28;1.85;;;1.20;;
64885;SDS011;51514;52.206;5.114;2023-08-24T00:05:53;1.95;;;1.50;;
64885;SDS011;51514;52.206;5.114;2023-08-24T00:08:19;2.97;;;1.48;;
64885;SDS011;51514;52.206;5.114;2023-08-24T00:10:45;1.48;;;1.20;;
64885;SDS011;51514;52.206;5.114;2023-08-24T00:13:12;1.98;;;1.15;;
64885;SDS011;51514;52.206;5.114;2023-08-24T00:15:38;2.28;;;1.20;;
64885;SDS011;51514;52.206;5.114;2023-08-24T00:18:04;1.95;;;1.30;;
64885;SDS011;51514;52.206;5.114;2023-08-24T00:20:30;2.17;;;1.35;;
64885;SDS011;51514;52.206;5.114;2023-08-24T00:22:57;1.83;;;1.20;;
64885;SDS011;51514;52.206;5.114;2023-08-24T00:25:23;2.00;;;1.20;;
64885;SDS011;51514;52.206;5.114;2023-08-24T00:27:48;1.20;;;1.00;;
64885;SDS011;51514;52.206;5.114;2023-08-24T00:30:14;1.10;;;1.00;;
64885;SDS011;51514;52.206;5.114;2023-08-24T00:32:40;1.30;;;1.20;;
64885;SDS011;51514;52.206;5.114;2023-08-24T00:35:05;1.70;;;1.25;;
64885;SDS011;51514;52.206;5.114;2023-08-24T00:37:33;3.03;;;1.30;;
64885;SDS011;51514;52.206;5.114;2023-08-24T00:39:59;2.03;;;1.30;;
64885;SDS011;51514;52.206;5.114;2023-08-24T00:44:53;1.85;;;1.27;;
64885;SDS011;51514;52.206;5.114;2023-08-24T00:47:18;1.75;;;1.20;;
64885;SDS011;51514;52.206;5.114;2023-08-24T00:49:45;2.83;;;1.40;;
64885;SDS011;51514;52.206;5.114;2023-08-24T00:52:10;2.28;;;1.10;;
64885;SDS011;51514;52.206;5.114;2023-08-24T00:54:36;1.75;;;1.10;;
64885;SDS011;51514;52.206;5.114;2023-08-24T00:57:04;1.55;;;1.05;;
64885;SDS011;51514;52.206;5.114;2023-08-24T00:59:30;2.42;;;1.30;;
64885;SDS011;51514;52.206;5.114;2023-08-24T01:01:57;1.60;;;1.20;;
64885;SDS011;51514;52.206;5.114;2023-08-24T01:04:23;1.45;;;1.23;;
64885;SDS011;51514;52.206;5.114;2023-08-24T01:06:49;1.77;;;1.27;;
64885;SDS011;51514;52.206;5.114;2023-08-24T01:09:16;2.20;;;1.15;;
64885;SDS011;51514;52.206;5.114;2023-08-24T01:17:04;1.50;;;1.20;;
64885;SDS011;51514;52.206;5.114;2023-08-24T01:19:43;1.30;;;1.20;;
64885;SDS011;51514;52.206;5.114;2023-08-24T01:25:19;1.58;;;1.20;;
64885;SDS011;51514;52.206;5.114;2023-08-24T01:27:54;1.23;;;1.13;;
64885;SDS011;51514;52.206;5.114;2023-08-24T01:30:20;1.60;;;1.50;;
64885;SDS011;51514;52.206;5.114;2023-08-24T01:32:46;1.52;;;1.20;;
64885;SDS011;51514;52.206;5.114;2023-08-24T01:35:11;2.10;;;1.30;;
64885;SDS011;51514;52.206;5.114;2023-08-24T01:37:37;2.25;;;1.50;;
64885;SDS011;51514;52.206;5.114;2023-08-24T01:42:35;2.22;;;1.48;;
64885;SDS011;51514;52.206;5.114;2023-08-24T01:45:04;2.50;;;1.50;;
64885;SDS011;51514;52.206;5.114;2023-08-24T01:47:32;1.33;;;1.00;;
64885;SDS011;51514;52.206;5.114;2023-08-24T01:49:58;1.33;;;1.13;;
64885;SDS011;51514;52.206;5.114;2023-08-24T01:52:25;3.17;;;1.60;;
64885;SDS011;51514;52.206;5.114;2023-08-24T01:54:51;1.92;;;1.40;;
64885;SDS011;51514;52.206;5.114;2023-08-24T01:57:17;2.33;;;1.10;;
64885;SDS011;51514;52.206;5.114;2023-08-24T01:59:42;2.60;;;1.73;;
64885;SDS011;51514;52.206;5.114;2023-08-24T02:02:07;1.52;;;1.30;;
64885;SDS011;51514;52.206;5.114;2023-08-24T02:04:33;1.35;;;1.20;;
64885;SDS011;51514;52.206;5.114;2023-08-24T02:06:58;2.03;;;1.17;;
64885;SDS011;51514;52.206;5.114;2023-08-24T02:09:23;2.00;;;1.33;;
64885;SDS011;51514;52.206;5.114;2023-08-24T02:11:49;1.58;;;1.10;;
64885;SDS011;51514;52.206;5.114;2023-08-24T02:14:14;1.73;;;1.33;;
64885;SDS011;51514;52.206;5.114;2023-08-24T02:16:39;2.28;;;1.13;;
64885;SDS011;51514;52.206;5.114;2023-08-24T02:19:05;2.70;;;1.00;;
64885;SDS011;51514;52.206;5.114;2023-08-24T02:21:30;1.77;;;1.15;;
64885;SDS011;51514;52.206;5.114;2023-08-24T02:23:56;1.65;;;1.23;;
64885;SDS011;51514;52.206;5.114;2023-08-24T02:26:21;1.30;;;1.20;;
64885;SDS011;51514;52.206;5.114;2023-08-24T02:28:46;1.67;;;1.30;;
64885;SDS011;51514;52.206;5.114;2023-08-24T02:31:12;2.20;;;1.35;;
64885;SDS011;51514;52.206;5.114;2023-08-24T02:33:37;2.67;;;1.63;;
64885;SDS011;51514;52.206;5.114;2023-08-24T02:36:02;1.17;;;1.00;;
64885;SDS011;51514;52.206;5.114;2023-08-24T02:38:28;4.65;;;1.63;;
64885;SDS011;51514;52.206;5.114;2023-08-24T02:41:03;1.83;;;1.30;;
64885;SDS011;51514;52.206;5.114;2023-08-24T02:43:30;3.13;;;1.23;;
64885;SDS011;51514;52.206;5.114;2023-08-24T02:45:59;1.88;;;1.33;;
64885;SDS011;51514;52.206;5.114;2023-08-24T02:48:26;1.70;;;1.15;;
64885;SDS011;51514;52.206;5.114;2023-08-24T02:50:52;1.98;;;1.52;;
64885;SDS011;51514;52.206;5.114;2023-08-24T02:53:18;2.05;;;1.50;;
64885;SDS011;51514;52.206;5.114;2023-08-24T02:55:43;3.63;;;1.70;;
64885;SDS011;51514;52.206;5.114;2023-08-24T02:58:08;1.23;;;1.05;;
64885;SDS011;51514;52.206;5.114;2023-08-24T03:00:34;2.28;;;1.45;;
64885;SDS011;51514;52.206;5.114;2023-08-24T03:02:59;2.22;;;1.45;;
64885;SDS011;51514;52.206;5.114;2023-08-24T03:05:24;1.33;;;1.08;;
64885;SDS011;51514;52.206;5.114;2023-08-24T03:07:50;1.20;;;1.10;;
64885;SDS011;51514;52.206;5.114;2023-08-24T03:10:15;2.10;;;1.25;;
64885;SDS011;51514;52.206;5.114;2023-08-24T03:12:40;1.85;;;1.48;;
64885;SDS011;51514;52.206;5.114;2023-08-24T03:15:06;2.45;;;1.30;;
64885;SDS011;51514;52.206;5.114;2023-08-24T03:17:32;3.92;;;1.60;;
64885;SDS011;51514;52.206;5.114;2023-08-24T03:19:57;1.20;;;1.10;;
64885;SDS011;51514;52.206;5.114;2023-08-24T03:22:22;3.60;;;2.00;;
64885;SDS011;51514;52.206;5.114;2023-08-24T03:24:48;1.35;;;1.08;;
64885;SDS011;51514;52.206;5.114;2023-08-24T03:27:13;1.98;;;1.48;;
64885;SDS011;51514;52.206;5.114;2023-08-24T03:29:38;1.63;;;1.20;;
64885;SDS011;51514;52.206;5.114;2023-08-24T03:32:04;1.98;;;1.50;;
64885;SDS011;51514;52.206;5.114;2023-08-24T03:34:29;2.55;;;1.48;;
64885;SDS011;51514;52.206;5.114;2023-08-24T03:36:56;1.60;;;1.20;;
64885;SDS011;51514;52.206;5.114;2023-08-24T03:39:21;1.83;;;1.17;;
64885;SDS011;51514;52.206;5.114;2023-08-24T03:41:47;1.88;;;1.50;;
64885;SDS011;51514;52.206;5.114;2023-08-24T03:44:12;1.85;;;1.40;;
64885;SDS011;51514;52.206;5.114;2023-08-24T03:46:37;2.30;;;1.45;;
64885;SDS011;51514;52.206;5.114;2023-08-24T03:49:03;1.30;;;1.20;;
64885;SDS011;51514;52.206;5.114;2023-08-24T03:51:28;2.10;;;1.40;;
64885;SDS011;51514;52.206;5.114;2023-08-24T03:53:53;2.25;;;1.17;;
64885;SDS011;51514;52.206;5.114;2023-08-24T03:56:19;3.42;;;1.52;;
64885;SDS011;51514;52.206;5.114;2023-08-24T03:58:44;2.25;;;1.40;;
64885;SDS011;51514;52.206;5.114;2023-08-24T04:01:10;1.88;;;1.30;;
64885;SDS011;51514;52.206;5.114;2023-08-24T04:03:35;2.40;;;1.45;;
64885;SDS011;51514;52.206;5.114;2023-08-24T04:06:01;2.33;;;1.60;;
64885;SDS011;51514;52.206;5.114;2023-08-24T04:08:26;2.17;;;1.27;;
64885;SDS011;51514;52.206;5.114;2023-08-24T04:10:51;2.17;;;1.45;;
64885;SDS011;51514;52.206;5.114;2023-08-24T04:13:17;2.00;;;1.38;;
64885;SDS011;51514;52.206;5.114;2023-08-24T04:15:42;2.95;;;1.52;;
64885;SDS011;51514;52.206;5.114;2023-08-24T04:18:14;4.80;;;2.13;;
64885;SDS011;51514;52.206;5.114;2023-08-24T04:20:39;2.47;;;1.80;;
64885;SDS011;51514;52.206;5.114;2023-08-24T04:23:04;1.98;;;1.45;;
64885;SDS011;51514;52.206;5.114;2023-08-24T04:25:30;2.58;;;1.50;;
64885;SDS011;51514;52.206;5.114;2023-08-24T04:27:55;1.75;;;1.27;;
64885;SDS011;51514;52.206;5.114;2023-08-24T04:30:21;1.95;;;1.75;;
64885;SDS011;51514;52.206;5.114;2023-08-24T04:32:46;2.25;;;1.67;;
64885;SDS011;51514;52.206;5.114;2023-08-24T04:35:12;2.45;;;1.45;;
64885;SDS011;51514;52.206;5.114;2023-08-24T04:37:38;1.60;;;1.50;;
64885;SDS011;51514;52.206;5.114;2023-08-24T04:40:03;3.03;;;1.40;;
64885;SDS011;51514;52.206;5.114;2023-08-24T04:42:29;2.03;;;1.48;;
64885;SDS011;51514;52.206;5.114;2023-08-24T04:44:55;2.70;;;1.48;;
64885;SDS011;51514;52.206;5.114;2023-08-24T04:47:20;1.88;;;1.40;;
64885;SDS011;51514;52.206;5.114;2023-08-24T04:49:45;2.85;;;1.70;;
64885;SDS011;51514;52.206;5.114;2023-08-24T04:52:11;2.00;;;1.30;;
64885;SDS011;51514;52.206;5.114;2023-08-24T04:54:36;2.33;;;1.52;;
64885;SDS011;51514;52.206;5.114;2023-08-24T04:57:02;2.15;;;1.50;;
64885;SDS011;51514;52.206;5.114;2023-08-24T04:59:27;2.72;;;1.67;;
64885;SDS011;51514;52.206;5.114;2023-08-24T05:01:52;1.52;;;1.40;;
64885;SDS011;51514;52.206;5.114;2023-08-24T05:04:18;2.40;;;1.45;;
64885;SDS011;51514;52.206;5.114;2023-08-24T05:06:43;2.60;;;1.63;;
64885;SDS011;51514;52.206;5.114;2023-08-24T05:09:09;2.17;;;1.52;;
64885;SDS011;51514;52.206;5.114;2023-08-24T05:11:34;1.80;;;1.52;;
64885;SDS011;51514;52.206;5.114;2023-08-24T05:13:59;1.75;;;1.40;;
64885;SDS011;51514;52.206;5.114;2023-08-24T05:16:25;2.75;;;1.50;;
64885;SDS011;51514;52.206;5.114;2023-08-24T05:18:50;2.78;;;1.98;;
64885;SDS011;51514;52.206;5.114;2023-08-24T05:21:15;1.75;;;1.42;;
64885;SDS011;51514;52.206;5.114;2023-08-24T05:23:41;3.58;;;1.80;;
64885;SDS011;51514;52.206;5.114;2023-08-24T05:26:06;2.47;;;1.65;;
64885;SDS011;51514;52.206;5.114;2023-08-24T05:28:32;2.45;;;1.60;;
64885;SDS011;51514;52.206;5.114;2023-08-24T05:30:58;2.80;;;1.65;;
64885;SDS011;51514;52.206;5.114;2023-08-24T05:33:24;2.20;;;1.42;;
64885;SDS011;51514;52.206;5.114;2023-08-24T05:35:50;2.35;;;1.50;;
64885;SDS011;51514;52.206;5.114;2023-08-24T05:38:16;3.33;;;2.30;;
64885;SDS011;51514;52.206;5.114;2023-08-24T05:40:42;1.58;;;1.48;;
64885;SDS011;51514;52.206;5.114;2023-08-24T05:43:09;2.25;;;1.75;;
64885;SDS011;51514;52.206;5.114;2023-08-24T05:45:37;1.77;;;1.45;;
64885;SDS011;51514;52.206;5.114;2023-08-24T05:48:04;2.38;;;1.58;;
64885;SDS011;51514;52.206;5.114;2023-08-24T05:50:30;2.08;;;1.52;;
64885;SDS011;51514;52.206;5.114;2023-08-24T05:52:56;2.45;;;1.58;;
64885;SDS011;51514;52.206;5.114;2023-08-24T05:55:21;1.52;;;1.40;;
64885;SDS011;51514;52.206;5.114;2023-08-24T05:57:47;4.43;;;1.63;;
64885;SDS011;51514;52.206;5.114;2023-08-24T06:00:13;2.67;;;1.40;;
64885;SDS011;51514;52.206;5.114;2023-08-24T06:02:39;2.95;;;1.33;;
64885;SDS011;51514;52.206;5.114;2023-08-24T06:05:05;2.53;;;1.80;;
64885;SDS011;51514;52.206;5.114;2023-08-24T06:07:32;2.50;;;1.80;;
64885;SDS011;51514;52.206;5.114;2023-08-24T06:09:58;2.92;;;1.77;;
64885;SDS011;51514;52.206;5.114;2023-08-24T06:12:23;2.08;;;1.60;;
64885;SDS011;51514;52.206;5.114;2023-08-24T06:14:49;2.72;;;1.75;;
64885;SDS011;51514;52.206;5.114;2023-08-24T06:17:14;3.38;;;1.98;;
64885;SDS011;51514;52.206;5.114;2023-08-24T06:19:39;4.97;;;2.45;;
64885;SDS011;51514;52.206;5.114;2023-08-24T06:22:05;2.80;;;2.00;;
64885;SDS011;51514;52.206;5.114;2023-08-24T06:24:31;2.75;;;1.80;;
64885;SDS011;51514;52.206;5.114;2023-08-24T06:26:56;3.50;;;2.30;;
64885;SDS011;51514;52.206;5.114;2023-08-24T06:29:21;5.88;;;2.05;;
64885;SDS011;51514;52.206;5.114;2023-08-24T06:31:47;2.38;;;1.90;;
64885;SDS011;51514;52.206;5.114;2023-08-24T06:34:12;4.05;;;1.73;;
64885;SDS011;51514;52.206;5.114;2023-08-24T06:36:38;4.03;;;2.17;;
64885;SDS011;51514;52.206;5.114;2023-08-24T06:39:03;3.88;;;1.83;;
64885;SDS011;51514;52.206;5.114;2023-08-24T06:41:32;3.75;;;2.22;;
64885;SDS011;51514;52.206;5.114;2023-08-24T06:43:59;3.80;;;1.83;;
64885;SDS011;51514;52.206;5.114;2023-08-24T06:46:25;2.88;;;1.77;;
64885;SDS011;51514;52.206;5.114;2023-08-24T06:48:50;3.97;;;2.45;;
64885;SDS011;51514;52.206;5.114;2023-08-24T06:51:15;3.83;;;2.03;;
64885;SDS011;51514;52.206;5.114;2023-08-24T06:53:41;5.20;;;1.92;;
64885;SDS011;51514;52.206;5.114;2023-08-24T06:56:07;3.83;;;2.30;;
64885;SDS011;51514;52.206;5.114;2023-08-24T06:58:33;2.47;;;1.98;;
64885;SDS011;51514;52.206;5.114;2023-08-24T07:00:59;3.30;;;1.92;;
64885;SDS011;51514;52.206;5.114;2023-08-24T07:03:25;5.10;;;1.80;;
64885;SDS011;51514;52.206;5.114;2023-08-24T07:05:50;2.97;;;1.98;;
64885;SDS011;51514;52.206;5.114;2023-08-24T07:08:15;3.75;;;1.80;;
64885;SDS011;51514;52.206;5.114;2023-08-24T07:10:41;3.60;;;2.00;;
64885;SDS011;51514;52.206;5.114;2023-08-24T07:13:07;3.13;;;2.10;;
64885;SDS011;51514;52.206;5.114;2023-08-24T07:15:33;3.75;;;1.98;;
64885;SDS011;51514;52.206;5.114;2023-08-24T07:18:00;2.85;;;1.85;;
64885;SDS011;51514;52.206;5.114;2023-08-24T07:20:26;2.10;;;1.70;;
64885;SDS011;51514;52.206;5.114;2023-08-24T07:22:52;4.32;;;1.80;;
64885;SDS011;51514;52.206;5.114;2023-08-24T07:25:19;3.20;;;2.08;;
64885;SDS011;51514;52.206;5.114;2023-08-24T07:27:46;1.88;;;1.73;;
64885;SDS011;51514;52.206;5.114;2023-08-24T07:30:12;2.20;;;1.58;;
64885;SDS011;51514;52.206;5.114;2023-08-24T07:32:37;2.00;;;1.65;;
64885;SDS011;51514;52.206;5.114;2023-08-24T07:35:03;3.63;;;2.10;;
64885;SDS011;51514;52.206;5.114;2023-08-24T07:37:31;2.83;;;1.85;;
64885;SDS011;51514;52.206;5.114;2023-08-24T07:39:56;4.18;;;2.08;;
64885;SDS011;51514;52.206;5.114;2023-08-24T07:42:22;3.90;;;2.05;;
64885;SDS011;51514;52.206;5.114;2023-08-24T07:44:47;3.40;;;2.20;;
64885;SDS011;51514;52.206;5.114;2023-08-24T07:47:14;2.20;;;1.75;;
64885;SDS011;51514;52.206;5.114;2023-08-24T07:49:39;4.90;;;1.80;;
64885;SDS011;51514;52.206;5.114;2023-08-24T07:52:10;3.38;;;2.30;;
64885;SDS011;51514;52.206;5.114;2023-08-24T07:54:37;2.67;;;1.70;;
64885;SDS011;51514;52.206;5.114;2023-08-24T07:57:02;4.38;;;2.20;;
64885;SDS011;51514;52.206;5.114;2023-08-24T07:59:27;3.83;;;1.90;;
64885;SDS011;51514;52.206;5.114;2023-08-24T08:01:53;2.58;;;1.90;;
64885;SDS011;51514;52.206;5.114;2023-08-24T08:04:18;5.78;;;2.00;;
64885;SDS011;51514;52.206;5.114;2023-08-24T08:06:43;3.13;;;2.30;;
64885;SDS011;51514;52.206;5.114;2023-08-24T08:09:09;2.75;;;1.75;;
64885;SDS011;51514;52.206;5.114;2023-08-24T08:11:34;1.95;;;1.67;;
64885;SDS011;51514;52.206;5.114;2023-08-24T08:14:00;4.00;;;1.90;;
64885;SDS011;51514;52.206;5.114;2023-08-24T08:16:25;5.80;;;2.38;;
64885;SDS011;51514;52.206;5.114;2023-08-24T08:18:50;2.58;;;1.80;;
64885;SDS011;51514;52.206;5.114;2023-08-24T08:21:17;2.92;;;1.80;;
64885;SDS011;51514;52.206;5.114;2023-08-24T08:23:43;3.03;;;1.95;;
64885;SDS011;51514;52.206;5.114;2023-08-24T08:26:12;2.97;;;1.70;;
64885;SDS011;51514;52.206;5.114;2023-08-24T08:28:41;2.50;;;1.80;;
64885;SDS011;51514;52.206;5.114;2023-08-24T08:31:07;6.75;;;1.83;;
64885;SDS011;51514;52.206;5.114;2023-08-24T08:33:32;4.55;;;1.92;;
64885;SDS011;51514;52.206;5.114;2023-08-24T08:35:58;2.72;;;1.95;;
64885;SDS011;51514;52.206;5.114;2023-08-24T08:38:23;2.42;;;1.60;;
64885;SDS011;51514;52.206;5.114;2023-08-24T08:40:51;5.05;;;1.55;;
64885;SDS011;51514;52.206;5.114;2023-08-24T08:43:21;4.05;;;1.55;;
64885;SDS011;51514;52.206;5.114;2023-08-24T08:45:48;2.83;;;1.73;;
64885;SDS011;51514;52.206;5.114;2023-08-24T08:48:18;2.65;;;1.90;;
64885;SDS011;51514;52.206;5.114;2023-08-24T08:50:49;3.40;;;2.03;;
64885;SDS011;51514;52.206;5.114;2023-08-24T08:53:16;2.78;;;1.85;;
64885;SDS011;51514;52.206;5.114;2023-08-24T08:55:41;4.07;;;2.10;;
64885;SDS011;51514;52.206;5.114;2023-08-24T08:58:07;2.80;;;2.00;;
64885;SDS011;51514;52.206;5.114;2023-08-24T09:00:33;3.10;;;1.73;;
64885;SDS011;51514;52.206;5.114;2023-08-24T09:03:00;4.80;;;2.05;;
64885;SDS011;51514;52.206;5.114;2023-08-24T09:05:27;3.63;;;1.75;;
64885;SDS011;51514;52.206;5.114;2023-08-24T09:07:53;5.30;;;2.20;;
64885;SDS011;51514;52.206;5.114;2023-08-24T09:10:21;4.97;;;1.95;;
64885;SDS011;51514;52.206;5.114;2023-08-24T09:12:47;3.13;;;1.98;;
64885;SDS011;51514;52.206;5.114;2023-08-24T09:15:12;2.70;;;1.65;;
64885;SDS011;51514;52.206;5.114;2023-08-24T09:17:41;3.17;;;1.75;;
64885;SDS011;51514;52.206;5.114;2023-08-24T09:20:08;2.42;;;1.67;;
64885;SDS011;51514;52.206;5.114;2023-08-24T09:22:35;2.67;;;1.90;;
64885;SDS011;51514;52.206;5.114;2023-08-24T09:25:01;2.55;;;1.90;;
64885;SDS011;51514;52.206;5.114;2023-08-24T09:27:29;5.00;;;2.15;;
64885;SDS011;51514;52.206;5.114;2023-08-24T09:29:54;3.95;;;1.88;;
64885;SDS011;51514;52.206;5.114;2023-08-24T09:32:29;2.53;;;1.88;;
64885;SDS011;51514;52.206;5.114;2023-08-24T09:35:04;3.40;;;1.75;;
64885;SDS011;51514;52.206;5.114;2023-08-24T09:37:36;3.03;;;2.03;;
64885;SDS011;51514;52.206;5.114;2023-08-24T09:42:36;2.70;;;1.73;;
64885;SDS011;51514;52.206;5.114;2023-08-24T09:45:07;3.47;;;1.67;;
64885;SDS011;51514;52.206;5.114;2023-08-24T09:47:39;2.50;;;1.73;;
64885;SDS011;51514;52.206;5.114;2023-08-24T09:50:05;3.92;;;1.90;;
64885;SDS011;51514;52.206;5.114;2023-08-24T09:52:31;2.55;;;2.00;;
64885;SDS011;51514;52.206;5.114;2023-08-24T09:54:59;2.70;;;1.73;;
64885;SDS011;51514;52.206;5.114;2023-08-24T09:57:30;4.05;;;1.77;;
64885;SDS011;51514;52.206;5.114;2023-08-24T09:59:59;2.53;;;1.90;;
64885;SDS011;51514;52.206;5.114;2023-08-24T10:02:24;2.90;;;1.80;;
64885;SDS011;51514;52.206;5.114;2023-08-24T10:04:55;5.18;;;2.28;;
64885;SDS011;51514;52.206;5.114;2023-08-24T10:07:21;3.97;;;1.65;;
64885;SDS011;51514;52.206;5.114;2023-08-24T10:10:02;5.45;;;2.05;;
64885;SDS011;51514;52.206;5.114;2023-08-24T10:12:28;3.58;;;1.80;;
64885;SDS011;51514;52.206;5.114;2023-08-24T10:15:01;2.42;;;1.70;;
64885;SDS011;51514;52.206;5.114;2023-08-24T10:17:32;3.88;;;2.00;;
64885;SDS011;51514;52.206;5.114;2023-08-24T10:19:59;3.22;;;1.88;;
64885;SDS011;51514;52.206;5.114;2023-08-24T10:22:34;3.30;;;2.20;;
64885;SDS011;51514;52.206;5.114;2023-08-24T10:25:00;3.72;;;1.70;;
64885;SDS011;51514;52.206;5.114;2023-08-24T10:27:26;5.38;;;1.90;;
64885;SDS011;51514;52.206;5.114;2023-08-24T10:29:53;2.90;;;1.90;;
64885;SDS011;51514;52.206;5.114;2023-08-24T10:32:21;4.10;;;2.00;;
64885;SDS011;51514;52.206;5.114;2023-08-24T10:34:48;2.72;;;1.80;;
64885;SDS011;51514;52.206;5.114;2023-08-24T10:37:14;2.50;;;1.77;;
64885;SDS011;51514;52.206;5.114;2023-08-24T10:39:44;2.67;;;1.90;;
64885;SDS011;51514;52.206;5.114;2023-08-24T10:42:11;2.50;;;1.70;;
64885;SDS011;51514;52.206;5.114;2023-08-24T10:44:38;3.67;;;2.42;;
64885;SDS011;51514;52.206;5.114;2023-08-24T10:49:40;2.65;;;1.90;;
64885;SDS011;51514;52.206;5.114;2023-08-24T10:52:19;2.45;;;1.80;;
64885;SDS011;51514;52.206;5.114;2023-08-24T10:54:46;2.47;;;2.00;;
64885;SDS011;51514;52.206;5.114;2023-08-24T10:57:23;3.75;;;1.88;;
64885;SDS011;51514;52.206;5.114;2023-08-24T11:02:52;2.75;;;1.83;;
64885;SDS011;51514;52.206;5.114;2023-08-24T11:05:18;2.83;;;2.05;;
64885;SDS011;51514;52.206;5.114;2023-08-24T11:10:28;2.47;;;1.90;;
64885;SDS011;51514;52.206;5.114;2023-08-24T11:15:38;2.65;;;1.80;;
64885;SDS011;51514;52.206;5.114;2023-08-24T11:18:11;1.88;;;1.52;;
64885;SDS011;51514;52.206;5.114;2023-08-24T11:20:38;1.95;;;1.63;;
64885;SDS011;51514;52.206;5.114;2023-08-24T11:23:07;2.80;;;1.90;;
64885;SDS011;51514;52.206;5.114;2023-08-24T11:25:37;3.78;;;2.20;;
64885;SDS011;51514;52.206;5.114;2023-08-24T11:28:05;2.75;;;2.08;;
64885;SDS011;51514;52.206;5.114;2023-08-24T11:30:31;3.92;;;1.63;;
64885;SDS011;51514;52.206;5.114;2023-08-24T11:32:58;4.95;;;2.22;;
64885;SDS011;51514;52.206;5.114;2023-08-24T11:35:23;3.08;;;1.83;;
64885;SDS011;51514;52.206;5.114;2023-08-24T11:37:55;3.78;;;1.92;;
64885;SDS011;51514;52.206;5.114;2023-08-24T11:40:21;3.47;;;2.15;;
64885;SDS011;51514;52.206;5.114;2023-08-24T11:42:56;3.05;;;1.80;;
64885;SDS011;51514;52.206;5.114;2023-08-24T11:45:22;3.30;;;2.10;;
64885;SDS011;51514;52.206;5.114;2023-08-24T11:47:48;4.20;;;2.20;;
64885;SDS011;51514;52.206;5.114;2023-08-24T11:50:14;3.67;;;1.80;;
64885;SDS011;51514;52.206;5.114;2023-08-24T11:52:40;4.45;;;1.90;;
64885;SDS011;51514;52.206;5.114;2023-08-24T11:55:06;3.13;;;2.40;;
64885;SDS011;51514;52.206;5.114;2023-08-24T11:57:33;2.28;;;1.90;;
64885;SDS011;51514;52.206;5.114;2023-08-24T12:02:29;3.67;;;2.65;;
64885;SDS011;51514;52.206;5.114;2023-08-24T12:04:55;4.07;;;2.40;;
64885;SDS011;51514;52.206;5.114;2023-08-24T12:07:21;3.08;;;2.22;;
64885;SDS011;51514;52.206;5.114;2023-08-24T12:09:46;2.70;;;2.00;;
64885;SDS011;51514;52.206;5.114;2023-08-24T12:12:15;3.15;;;2.40;;
64885;SDS011;51514;52.206;5.114;2023-08-24T12:14:45;3.67;;;2.30;;
64885;SDS011;51514;52.206;5.114;2023-08-24T12:17:11;2.85;;;2.08;;
64885;SDS011;51514;52.206;5.114;2023-08-24T12:19:40;4.75;;;2.30;;
64885;SDS011;51514;52.206;5.114;2023-08-24T12:22:07;3.78;;;2.20;;
64885;SDS011;51514;52.206;5.114;2023-08-24T12:24:34;3.42;;;2.38;;
64885;SDS011;51514;52.206;5.114;2023-08-24T12:26:59;3.25;;;2.05;;
64885;SDS011;51514;52.206;5.114;2023-08-24T12:29:26;3.15;;;2.10;;
64885;SDS011;51514;52.206;5.114;2023-08-24T12:31:52;3.72;;;1.98;;
64885;SDS011;51514;52.206;5.114;2023-08-24T12:34:22;3.95;;;2.15;;
64885;SDS011;51514;52.206;5.114;2023-08-24T12:36:48;4.53;;;2.40;;
64885;SDS011;51514;52.206;5.114;2023-08-24T12:39:13;3.10;;;2.33;;
64885;SDS011;51514;52.206;5.114;2023-08-24T12:41:40;3.90;;;2.10;;
64885;SDS011;51514;52.206;5.114;2023-08-24T12:44:06;2.80;;;2.00;;
64885;SDS011;51514;52.206;5.114;2023-08-24T12:46:32;2.40;;;1.77;;
64885;SDS011;51514;52.206;5.114;2023-08-24T12:48:58;3.65;;;2.10;;
64885;SDS011;51514;52.206;5.114;2023-08-24T12:51:24;5.13;;;2.03;;
64885;SDS011;51514;52.206;5.114;2023-08-24T12:53:49;3.00;;;2.08;;
64885;SDS011;51514;52.206;5.114;2023-08-24T12:56:15;2.53;;;1.95;;
64885;SDS011;51514;52.206;5.114;2023-08-24T12:58:41;4.13;;;2.42;;
64885;SDS011;51514;52.206;5.114;2023-08-24T13:01:06;3.03;;;2.17;;
64885;SDS011;51514;52.206;5.114;2023-08-24T13:03:32;2.67;;;2.00;;
64885;SDS011;51514;52.206;5.114;2023-08-24T13:05:58;3.30;;;2.25;;
64885;SDS011;51514;52.206;5.114;2023-08-24T13:08:24;3.28;;;1.80;;
64885;SDS011;51514;52.206;5.114;2023-08-24T13:10:50;1.98;;;1.77;;
64885;SDS011;51514;52.206;5.114;2023-08-24T13:13:17;3.22;;;1.70;;
64885;SDS011;51514;52.206;5.114;2023-08-24T13:15:42;3.13;;;2.35;;
64885;SDS011;51514;52.206;5.114;2023-08-24T13:18:08;2.67;;;2.08;;
64885;SDS011;51514;52.206;5.114;2023-08-24T13:20:33;3.53;;;2.03;;
64885;SDS011;51514;52.206;5.114;2023-08-24T13:22:58;2.70;;;2.22;;
64885;SDS011;51514;52.206;5.114;2023-08-24T13:25:24;2.90;;;2.20;;
64885;SDS011;51514;52.206;5.114;2023-08-24T13:27:49;3.72;;;2.40;;
64885;SDS011;51514;52.206;5.114;2023-08-24T13:30:14;3.65;;;2.20;;
64885;SDS011;51514;52.206;5.114;2023-08-24T13:32:40;3.65;;;2.13;;
64885;SDS011;51514;52.206;5.114;2023-08-24T13:35:05;3.63;;;2.20;;
64885;SDS011;51514;52.206;5.114;2023-08-24T13:37:31;2.83;;;1.73;;
64885;SDS011;51514;52.206;5.114;2023-08-24T13:40:00;2.95;;;2.05;;
64885;SDS011;51514;52.206;5.114;2023-08-24T13:42:25;2.60;;;1.95;;
64885;SDS011;51514;52.206;5.114;2023-08-24T13:44:52;3.75;;;2.00;;
64885;SDS011;51514;52.206;5.114;2023-08-24T13:47:17;2.33;;;1.90;;
64885;SDS011;51514;52.206;5.114;2023-08-24T13:49:43;3.90;;;2.00;;
64885;SDS011;51514;52.206;5.114;2023-08-24T13:52:08;3.08;;;2.15;;
64885;SDS011;51514;52.206;5.114;2023-08-24T13:54:34;2.60;;;2.00;;
64885;SDS011;51514;52.206;5.114;2023-08-24T13:56:59;3.90;;;2.17;;
64885;SDS011;51514;52.206;5.114;2023-08-24T13:59:26;4.35;;;2.78;;
64885;SDS011;51514;52.206;5.114;2023-08-24T14:01:52;5.32;;;2.70;;
64885;SDS011;51514;52.206;5.114;2023-08-24T14:04:17;5.20;;;2.33;;
64885;SDS011;51514;52.206;5.114;2023-08-24T14:06:42;3.30;;;2.40;;
64885;SDS011;51514;52.206;5.114;2023-08-24T14:09:08;4.97;;;2.65;;
64885;SDS011;51514;52.206;5.114;2023-08-24T14:11:33;4.32;;;2.40;;
64885;SDS011;51514;52.206;5.114;2023-08-24T14:13:58;3.38;;;2.22;;
64885;SDS011;51514;52.206;5.114;2023-08-24T14:16:24;3.80;;;2.35;;
64885;SDS011;51514;52.206;5.114;2023-08-24T14:18:51;3.78;;;2.70;;
64885;SDS011;51514;52.206;5.114;2023-08-24T14:21:17;3.08;;;2.45;;
64885;SDS011;51514;52.206;5.114;2023-08-24T14:23:42;2.95;;;2.08;;
64885;SDS011;51514;52.206;5.114;2023-08-24T14:26:07;3.15;;;2.50;;
64885;SDS011;51514;52.206;5.114;2023-08-24T14:31:20;3.65;;;2.30;;
64885;SDS011;51514;52.206;5.114;2023-08-24T14:33:46;4.15;;;2.25;;
64885;SDS011;51514;52.206;5.114;2023-08-24T14:36:11;8.35;;;2.30;;
64885;SDS011;51514;52.206;5.114;2023-08-24T14:38:40;3.17;;;2.25;;
64885;SDS011;51514;52.206;5.114;2023-08-24T14:41:07;3.65;;;2.20;;
64885;SDS011;51514;52.206;5.114;2023-08-24T14:43:33;7.20;;;2.80;;
64885;SDS011;51514;52.206;5.114;2023-08-24T14:45:59;3.30;;;2.13;;
64885;SDS011;51514;52.206;5.114;2023-08-24T14:48:24;3.97;;;2.70;;
64885;SDS011;51514;52.206;5.114;2023-08-24T14:50:49;3.97;;;2.40;;
64885;SDS011;51514;52.206;5.114;2023-08-24T14:53:15;4.85;;;2.45;;
64885;SDS011;51514;52.206;5.114;2023-08-24T14:55:40;3.70;;;2.72;;
64885;SDS011;51514;52.206;5.114;2023-08-24T14:58:06;5.43;;;2.60;;
64885;SDS011;51514;52.206;5.114;2023-08-24T15:00:32;3.20;;;2.10;;
64885;SDS011;51514;52.206;5.114;2023-08-24T15:02:58;3.45;;;2.20;;
64885;SDS011;51514;52.206;5.114;2023-08-24T15:05:23;3.17;;;2.00;;
64885;SDS011;51514;52.206;5.114;2023-08-24T15:07:49;3.97;;;2.53;;
64885;SDS011;51514;52.206;5.114;2023-08-24T15:10:15;5.05;;;2.70;;
64885;SDS011;51514;52.206;5.114;2023-08-24T15:12:41;4.47;;;2.78;;
64885;SDS011;51514;52.206;5.114;2023-08-24T15:15:07;4.53;;;2.38;;